Time;durP1;ratioP1;P1;durP2;ratioP2;P2;SDS_P1;SDS_P2;PMS_P1;PMS_P2;Temp;Humidity;BMP_temperature;BMP_pressure;BME280_temperature;BME280_humidity;BME280_pressure;Samples;Min_cycle;Max_cycle;Signal;HPM_P1;HPM_P2
2023/09/01 00:00:46;;;;;;;;;;;12.90;99.90;;;;;;5025522;28;20006;-39
2023/09/01 00:03:12;;;;;;;;;;;12.90;99.90;;;;;;5035725;28;19929;-40
2023/09/01 00:05:39;;;;;;;;;;;12.90;99.90;;;;;;5019995;28;19936;-39
2023/09/01 00:08:06;;;;;;;;;;;12.90;99.90;;;;;;5016283;28;19995;-40
2023/09/01 00:10:35;;;;;;;;;;;12.80;99.90;;;;;;5015364;28;20008;-40
2023/09/01 00:13:02;;;;;;;;;;;12.80;99.90;;;;;;5028343;28;19949;-39
2023/09/01 00:15:29;;;;;;;;;;;12.80;99.90;;;;;;5035140;28;20396;-39
2023/09/01 00:17:57;;;;;;;;;;;12.80;99.90;;;;;;5031240;28;20355;-40
2023/09/01 00:20:23;;;;;;;;;;;12.80;99.90;;;;;;5016406;28;20459;-40
2023/09/01 00:22:50;;;;;;;;;;;12.80;99.90;;;;;;5016347;28;19950;-40
2023/09/01 00:25:17;;;;;;;;;;;12.80;99.90;;;;;;5015788;28;19941;-40
2023/09/01 00:27:43;;;;;;;;;;;12.80;99.90;;;;;;5022762;28;19989;-40
2023/09/01 00:30:11;;;;;;;;;;;12.80;99.90;;;;;;5022947;28;19941;-39
2023/09/01 00:32:38;;;;;;;;;;;12.80;99.90;;;;;;5032283;28;19973;-40
2023/09/01 00:35:06;;;;;;;;;;;12.70;99.90;;;;;;5034741;28;19945;-40
2023/09/01 00:37:33;;;;;;;;;;;12.70;99.90;;;;;;5035641;28;20377;-40
2023/09/01 00:40:00;;;;;;;;;;;12.70;99.90;;;;;;5021899;28;19980;-39
2023/09/01 00:42:26;;;;;;;;;;;12.70;99.90;;;;;;5026665;28;19963;-40
2023/09/01 00:44:53;;;;;;;;;;;12.70;99.90;;;;;;5034829;28;20380;-40
2023/09/01 00:47:20;;;;;;;;;;;12.70;99.90;;;;;;5023352;28;19940;-40
2023/09/01 00:49:47;;;;;;;;;;;12.70;99.90;;;;;;5015407;28;20383;-40
2023/09/01 00:52:15;;;;;;;;;;;12.70;99.90;;;;;;5014654;28;19942;-39
2023/09/01 00:54:42;;;;;;;;;;;12.70;99.90;;;;;;5015773;28;19947;-39
2023/09/01 00:57:08;;;;;;;;;;;12.70;99.90;;;;;;5016475;28;20003;-40
2023/09/01 00:59:35;;;;;;;;;;;12.70;99.90;;;;;;5034472;28;19946;-39
2023/09/01 01:02:04;;;;;;;;;;;12.70;99.90;;;;;;5035205;28;19963;-40
2023/09/01 01:04:31;;;;;;;;;;;12.70;99.90;;;;;;5017541;28;19989;-40
2023/09/01 01:06:59;;;;;;;;;;;12.70;99.90;;;;;;5015190;28;20459;-40
2023/09/01 01:09:29;;;;;;;;;;;12.60;99.90;;;;;;5033908;28;20383;-40
2023/09/01 01:11:57;;;;;;;;;;;12.60;99.90;;;;;;5025471;28;20346;-39
2023/09/01 01:14:24;;;;;;;;;;;12.60;99.90;;;;;;5028937;28;19992;-39
2023/09/01 01:16:51;;;;;;;;;;;12.50;99.90;;;;;;5024698;28;19959;-40
2023/09/01 01:19:23;;;;;;;;;;;12.50;99.90;;;;;;5015384;28;19943;-40
2023/09/01 01:21:52;;;;;;;;;;;12.60;99.90;;;;;;5019359;28;20001;-39
2023/09/01 01:24:20;;;;;;;;;;;12.60;99.90;;;;;;5014249;28;20381;-40
2023/09/01 01:26:46;;;;;;;;;;;12.60;99.90;;;;;;5028503;28;19940;-40
2023/09/01 01:29:13;;;;;;;;;;;12.50;99.90;;;;;;5014096;28;19944;-40
2023/09/01 01:31:40;;;;;;;;;;;12.50;99.90;;;;;;5014582;28;19940;-40
2023/09/01 01:34:09;;;;;;;;;;;12.50;99.90;;;;;;5015498;28;19949;-40
2023/09/01 01:36:37;;;;;;;;;;;12.50;99.90;;;;;;5014111;28;19936;-40
2023/09/01 01:39:06;;;;;;;;;;;12.50;99.90;;;;;;5040619;28;19950;-39
2023/09/01 01:41:37;;;;;;;;;;;12.50;99.90;;;;;;5033926;28;19956;-40
2023/09/01 01:44:04;;;;;;;;;;;12.50;99.90;;;;;;5022668;28;20028;-40
2023/09/01 01:46:31;;;;;;;;;;;12.50;99.90;;;;;;5014532;28;19940;-40
2023/09/01 01:48:57;;;;;;;;;;;12.50;99.90;;;;;;5025915;28;19989;-39
2023/09/01 01:51:24;;;;;;;;;;;12.50;99.90;;;;;;5032305;28;19959;-39
2023/09/01 01:53:51;;;;;;;;;;;12.50;99.90;;;;;;5022721;28;19949;-40
2023/09/01 01:56:17;;;;;;;;;;;12.50;99.90;;;;;;5013479;28;19942;-40
2023/09/01 01:58:45;;;;;;;;;;;12.50;99.90;;;;;;5022486;28;19942;-39
2023/09/01 02:01:12;;;;;;;;;;;12.50;99.90;;;;;;5014280;28;19961;-39
2023/09/01 02:03:39;;;;;;;;;;;12.50;99.90;;;;;;5017690;28;19929;-40
2023/09/01 02:06:05;;;;;;;;;;;12.50;99.90;;;;;;5032358;28;19936;-39
2023/09/01 02:08:32;;;;;;;;;;;12.50;99.90;;;;;;5031827;28;20393;-40
2023/09/01 02:10:59;;;;;;;;;;;12.50;99.90;;;;;;5024892;28;20387;-39
2023/09/01 02:13:25;;;;;;;;;;;12.50;99.90;;;;;;5027835;28;20377;-40
2023/09/01 02:15:53;;;;;;;;;;;12.60;99.90;;;;;;5033621;28;19950;-40
2023/09/01 02:18:20;;;;;;;;;;;12.50;99.90;;;;;;5060990;28;19990;-40
2023/09/01 02:20:47;;;;;;;;;;;12.50;99.90;;;;;;5033426;28;20352;-40
2023/09/01 02:23:14;;;;;;;;;;;12.60;99.90;;;;;;5012528;28;19948;-39
2023/09/01 02:25:41;;;;;;;;;;;12.60;99.90;;;;;;5016393;28;19955;-40
2023/09/01 02:28:08;;;;;;;;;;;12.50;99.90;;;;;;5048545;28;20374;-39
2023/09/01 02:30:34;;;;;;;;;;;12.50;99.90;;;;;;5025479;28;20017;-40
2023/09/01 02:33:09;;;;;;;;;;;12.60;99.90;;;;;;5013881;28;19948;-39
2023/09/01 02:35:41;;;;;;;;;;;12.60;99.90;;;;;;5013122;28;19929;-39
2023/09/01 02:38:07;;;;;;;;;;;12.60;99.90;;;;;;5012580;28;19940;-40
2023/09/01 02:40:34;;;;;;;;;;;12.60;99.90;;;;;;5012933;28;19950;-39
2023/09/01 02:43:01;;;;;;;;;;;12.60;99.90;;;;;;5013556;28;19963;-40
2023/09/01 02:45:27;;;;;;;;;;;12.60;99.90;;;;;;5012448;28;19998;-40
2023/09/01 02:47:54;;;;;;;;;;;12.50;99.90;;;;;;5013293;28;20527;-40
2023/09/01 02:50:22;;;;;;;;;;;12.60;99.90;;;;;;5027984;28;19948;-40
2023/09/01 02:52:49;;;;;;;;;;;12.60;99.90;;;;;;5031571;28;19928;-40
2023/09/01 02:55:17;;;;;;;;;;;12.60;99.90;;;;;;5031334;28;20309;-40
2023/09/01 02:57:44;;;;;;;;;;;12.60;99.90;;;;;;5012193;28;19944;-40
2023/09/01 03:00:21;;;;;;;;;;;12.60;99.90;;;;;;5027497;28;19942;-40
2023/09/01 03:02:48;;;;;;;;;;;12.50;99.90;;;;;;5028714;28;19980;-40
2023/09/01 03:05:15;;;;;;;;;;;12.60;99.90;;;;;;5013332;28;20362;-40
2023/09/01 03:07:43;;;;;;;;;;;12.50;99.90;;;;;;5019615;28;19943;-40
2023/09/01 03:10:10;;;;;;;;;;;12.50;99.90;;;;;;5026660;28;19925;-40
2023/09/01 03:12:37;;;;;;;;;;;12.50;99.90;;;;;;5031719;28;19943;-40
2023/09/01 03:15:04;;;;;;;;;;;12.50;99.90;;;;;;5030707;28;19990;-40
2023/09/01 03:17:31;;;;;;;;;;;12.50;99.90;;;;;;5015158;28;19942;-40
2023/09/01 03:19:58;;;;;;;;;;;12.50;99.90;;;;;;5032342;28;20358;-40
2023/09/01 03:22:25;;;;;;;;;;;12.50;99.90;;;;;;5032584;28;20008;-40
2023/09/01 03:24:53;;;;;;;;;;;12.50;99.90;;;;;;5032632;28;19993;-40
2023/09/01 03:27:21;;;;;;;;;;;12.50;99.90;;;;;;5032137;28;20004;-40
2023/09/01 03:29:51;;;;;;;;;;;12.50;99.90;;;;;;5031932;28;20294;-40
2023/09/01 03:32:18;;;;;;;;;;;12.50;99.90;;;;;;5030476;28;19925;-40
2023/09/01 03:34:44;;;;;;;;;;;12.50;99.90;;;;;;5012401;28;20017;-41
2023/09/01 03:37:12;;;;;;;;;;;12.40;99.90;;;;;;5012160;28;19941;-40
2023/09/01 03:39:38;;;;;;;;;;;12.30;99.90;;;;;;5021424;28;20385;-40
2023/09/01 03:42:06;;;;;;;;;;;12.40;99.90;;;;;;5031573;28;20008;-40
2023/09/01 03:44:33;;;;;;;;;;;12.40;99.90;;;;;;5031138;28;20303;-38
2023/09/01 03:47:00;;;;;;;;;;;12.40;99.90;;;;;;5032330;28;19940;-40
2023/09/01 03:49:27;;;;;;;;;;;12.40;99.90;;;;;;5030758;28;19993;-40
2023/09/01 03:51:58;;;;;;;;;;;12.30;99.90;;;;;;5016509;28;20065;-40
2023/09/01 03:54:24;;;;;;;;;;;12.30;99.90;;;;;;5029439;28;19997;-40
2023/09/01 03:56:51;;;;;;;;;;;12.30;99.90;;;;;;5064592;28;19940;-40
2023/09/01 03:59:19;;;;;;;;;;;12.30;99.90;;;;;;5031727;28;19947;-40
2023/09/01 04:01:46;;;;;;;;;;;12.30;99.90;;;;;;5018306;28;19953;-40
2023/09/01 04:04:13;;;;;;;;;;;12.30;99.90;;;;;;5012631;28;19926;-40
2023/09/01 04:06:45;;;;;;;;;;;12.20;99.90;;;;;;5018740;28;19944;-40
2023/09/01 04:09:12;;;;;;;;;;;12.20;99.90;;;;;;5028676;28;19925;-40
2023/09/01 04:11:38;;;;;;;;;;;12.20;99.90;;;;;;5031689;28;20441;-40
2023/09/01 04:14:07;;;;;;;;;;;12.20;99.90;;;;;;5019223;28;19947;-40
2023/09/01 04:16:35;;;;;;;;;;;12.20;99.90;;;;;;5044423;28;19929;-40
2023/09/01 04:19:03;;;;;;;;;;;12.20;99.90;;;;;;5016480;28;19947;-40
2023/09/01 04:21:29;;;;;;;;;;;12.10;99.90;;;;;;5025750;28;19940;-40
2023/09/01 04:23:56;;;;;;;;;;;12.10;99.90;;;;;;5026804;28;19939;-40
2023/09/01 04:26:23;;;;;;;;;;;12.10;99.90;;;;;;5021387;28;19947;-40
2023/09/01 04:28:50;;;;;;;;;;;12.10;99.90;;;;;;5030888;28;19942;-41
2023/09/01 04:31:17;;;;;;;;;;;12.10;99.90;;;;;;5030316;28;20032;-41
2023/09/01 04:33:45;;;;;;;;;;;12.10;99.90;;;;;;5030069;28;19944;-40
2023/09/01 04:36:12;;;;;;;;;;;12.00;99.90;;;;;;5056692;28;19940;-40
2023/09/01 04:38:38;;;;;;;;;;;12.00;99.90;;;;;;5015486;28;19939;-40
2023/09/01 04:41:05;;;;;;;;;;;12.00;99.90;;;;;;5029819;28;19944;-40
2023/09/01 04:43:32;;;;;;;;;;;12.00;99.90;;;;;;5031495;28;19958;-40
2023/09/01 04:45:59;;;;;;;;;;;12.00;99.90;;;;;;5025414;28;19951;-40
2023/09/01 04:48:26;;;;;;;;;;;11.90;99.90;;;;;;5031286;28;19946;-40
2023/09/01 04:50:54;;;;;;;;;;;11.90;99.90;;;;;;5028465;28;20311;-40
2023/09/01 04:53:21;;;;;;;;;;;11.90;99.90;;;;;;5032468;28;19943;-40
2023/09/01 04:55:47;;;;;;;;;;;11.90;99.90;;;;;;5034324;28;19997;-40
2023/09/01 04:58:14;;;;;;;;;;;11.90;99.90;;;;;;5026039;28;20602;-40
2023/09/01 05:00:41;;;;;;;;;;;11.90;99.90;;;;;;5031989;28;19948;-43
2023/09/01 05:03:08;;;;;;;;;;;11.80;99.90;;;;;;5032752;28;19955;-40
2023/09/01 05:05:34;;;;;;;;;;;11.90;99.90;;;;;;5025361;28;19941;-40
2023/09/01 05:08:03;;;;;;;;;;;11.80;99.90;;;;;;5034840;28;19988;-40
2023/09/01 05:10:29;;;;;;;;;;;11.90;99.90;;;;;;5026120;28;19999;-39
2023/09/01 05:12:56;;;;;;;;;;;11.90;99.90;;;;;;5026572;28;19947;-40
2023/09/01 05:15:23;;;;;;;;;;;11.90;99.90;;;;;;5016362;28;19949;-41
2023/09/01 05:17:50;;;;;;;;;;;11.80;99.90;;;;;;5025426;28;19957;-40
2023/09/01 05:20:16;;;;;;;;;;;11.90;99.90;;;;;;5021262;28;20000;-41
2023/09/01 05:22:43;;;;;;;;;;;11.80;99.90;;;;;;5029574;28;19956;-40
2023/09/01 05:25:12;;;;;;;;;;;11.90;99.90;;;;;;5033937;28;20418;-40
2023/09/01 05:27:38;;;;;;;;;;;11.90;99.90;;;;;;5016535;28;19963;-40
2023/09/01 05:30:06;;;;;;;;;;;11.90;99.90;;;;;;5024766;28;19943;-40
2023/09/01 05:32:32;;;;;;;;;;;11.90;99.90;;;;;;5033206;28;19972;-40
2023/09/01 05:34:59;;;;;;;;;;;12.00;99.90;;;;;;5024522;28;19944;-39
2023/09/01 05:37:26;;;;;;;;;;;11.90;99.90;;;;;;5018368;28;21338;-40
2023/09/01 05:39:52;;;;;;;;;;;12.00;99.90;;;;;;5024206;28;19941;-40
2023/09/01 05:42:20;;;;;;;;;;;12.00;99.90;;;;;;5025374;28;20419;-40
2023/09/01 05:44:47;;;;;;;;;;;12.00;99.90;;;;;;5020795;28;20469;-39
2023/09/01 05:47:14;;;;;;;;;;;12.00;99.90;;;;;;5030698;28;19932;-39
2023/09/01 05:49:40;;;;;;;;;;;12.10;99.90;;;;;;5028180;28;19940;-39
2023/09/01 05:52:07;;;;;;;;;;;12.10;99.90;;;;;;5030790;28;19995;-39
2023/09/01 05:54:34;;;;;;;;;;;12.10;99.90;;;;;;5057805;28;19925;-39
2023/09/01 05:57:01;;;;;;;;;;;12.20;99.90;;;;;;5026771;28;19946;-40
2023/09/01 05:59:29;;;;;;;;;;;12.20;99.90;;;;;;5039577;28;20471;-39
2023/09/01 06:01:56;;;;;;;;;;;12.20;99.90;;;;;;5027689;28;19949;-39
2023/09/01 06:04:23;;;;;;;;;;;12.20;99.90;;;;;;5016540;28;19930;-39
2023/09/01 06:06:49;;;;;;;;;;;12.30;99.90;;;;;;5014206;28;19949;-39
2023/09/01 06:09:16;;;;;;;;;;;12.30;99.90;;;;;;5020969;28;20001;-39
2023/09/01 06:11:43;;;;;;;;;;;12.40;99.90;;;;;;5031582;28;19947;-40
2023/09/01 06:14:09;;;;;;;;;;;12.40;99.90;;;;;;5063447;28;19953;-40
2023/09/01 06:16:37;;;;;;;;;;;12.50;99.90;;;;;;5025810;28;19955;-39
2023/09/01 06:19:04;;;;;;;;;;;12.50;99.90;;;;;;5026514;28;20351;-39
2023/09/01 06:21:31;;;;;;;;;;;12.50;99.90;;;;;;5029196;28;19925;-39
2023/09/01 06:23:58;;;;;;;;;;;12.60;99.90;;;;;;5027744;28;20425;-39
2023/09/01 06:26:25;;;;;;;;;;;12.70;99.90;;;;;;5022580;28;19943;-39
2023/09/01 06:28:51;;;;;;;;;;;12.80;99.90;;;;;;5024862;28;19951;-40
2023/09/01 06:31:18;;;;;;;;;;;12.90;99.90;;;;;;5026656;28;19947;-39
2023/09/01 06:33:47;;;;;;;;;;;13.00;99.90;;;;;;5024785;28;19940;-40
2023/09/01 06:36:14;;;;;;;;;;;13.10;99.90;;;;;;5031758;28;19958;-39
2023/09/01 06:38:41;;;;;;;;;;;13.10;99.90;;;;;;5018523;28;19999;-39
2023/09/01 06:41:08;;;;;;;;;;;13.30;99.90;;;;;;5045745;28;19945;-40
2023/09/01 06:43:34;;;;;;;;;;;13.30;99.90;;;;;;5013189;28;20020;-39
2023/09/01 06:46:01;;;;;;;;;;;13.40;99.90;;;;;;5023870;28;19989;-39
2023/09/01 06:48:29;;;;;;;;;;;13.50;99.90;;;;;;5032264;28;19947;-39
2023/09/01 06:50:59;;;;;;;;;;;13.60;99.90;;;;;;5027127;28;19987;-39
2023/09/01 06:53:26;;;;;;;;;;;13.70;99.90;;;;;;5028731;28;19931;-39
2023/09/01 06:55:52;;;;;;;;;;;13.80;99.90;;;;;;5021998;28;20434;-39
2023/09/01 06:58:19;;;;;;;;;;;13.90;99.90;;;;;;5024320;28;20345;-39
2023/09/01 07:00:45;;;;;;;;;;;14.10;99.90;;;;;;5026302;28;19944;-39
2023/09/01 07:03:12;;;;;;;;;;;14.20;99.90;;;;;;5026737;28;19955;-39
2023/09/01 07:05:39;;;;;;;;;;;14.30;99.90;;;;;;5025590;28;20297;-39
2023/09/01 07:08:12;;;;;;;;;;;14.50;99.90;;;;;;5022979;28;19940;-39
2023/09/01 07:10:38;;;;;;;;;;;14.60;99.90;;;;;;5036203;28;19942;-39
2023/09/01 07:13:05;;;;;;;;;;;14.70;99.90;;;;;;5047226;28;19944;-39
2023/09/01 07:15:31;;;;;;;;;;;14.80;99.90;;;;;;5021898;28;19976;-40
2023/09/01 07:17:58;;;;;;;;;;;14.90;99.90;;;;;;5029373;28;20011;-40
2023/09/01 07:20:25;;;;;;;;;;;15.00;99.90;;;;;;5024720;28;19942;-39
2023/09/01 07:22:52;;;;;;;;;;;15.10;99.90;;;;;;5020776;28;19952;-39
2023/09/01 07:25:20;;;;;;;;;;;15.10;99.90;;;;;;5020836;28;19925;-39
2023/09/01 07:27:46;;;;;;;;;;;15.20;99.90;;;;;;5028552;28;20388;-39
2023/09/01 07:30:14;;;;;;;;;;;15.30;99.90;;;;;;5024738;28;20417;-39
2023/09/01 07:32:41;;;;;;;;;;;15.40;99.90;;;;;;5015243;28;19936;-39
2023/09/01 07:35:07;;;;;;;;;;;15.40;99.90;;;;;;5023923;28;19939;-40
2023/09/01 07:37:34;;;;;;;;;;;15.50;99.90;;;;;;5017254;28;19986;-39
2023/09/01 07:40:01;;;;;;;;;;;15.60;99.90;;;;;;5027324;28;19980;-39
2023/09/01 07:42:30;;;;;;;;;;;15.60;99.90;;;;;;5026368;28;19932;-39
2023/09/01 07:44:57;;;;;;;;;;;15.70;99.90;;;;;;5021474;28;19966;-39
2023/09/01 07:47:24;;;;;;;;;;;15.80;99.90;;;;;;5023584;28;19943;-39
2023/09/01 07:49:50;;;;;;;;;;;15.90;99.90;;;;;;5017661;28;19960;-39
2023/09/01 07:52:17;;;;;;;;;;;16.00;99.90;;;;;;5013101;28;19926;-39
2023/09/01 07:54:44;;;;;;;;;;;16.00;99.90;;;;;;5061401;28;19947;-39
2023/09/01 07:57:11;;;;;;;;;;;16.10;99.90;;;;;;5030606;28;20384;-39
2023/09/01 07:59:39;;;;;;;;;;;16.20;99.90;;;;;;5029350;28;19943;-39
2023/09/01 08:02:06;;;;;;;;;;;16.20;99.90;;;;;;5023441;28;19940;-39
2023/09/01 08:04:33;;;;;;;;;;;16.20;99.90;;;;;;5013999;28;19958;-39
2023/09/01 08:06:59;;;;;;;;;;;16.30;99.90;;;;;;5025761;28;19936;-40
2023/09/01 08:09:26;;;;;;;;;;;16.40;99.90;;;;;;5029754;28;20037;-39
2023/09/01 08:11:53;;;;;;;;;;;16.40;99.90;;;;;;5032106;28;19944;-40
2023/09/01 08:14:19;;;;;;;;;;;16.50;99.90;;;;;;5049423;28;19942;-39
2023/09/01 08:16:48;;;;;;;;;;;16.50;99.90;;;;;;5027843;28;19925;-39
2023/09/01 08:19:15;;;;;;;;;;;16.50;99.90;;;;;;5029606;28;19983;-39
2023/09/01 08:21:41;;;;;;;;;;;16.60;99.90;;;;;;5022404;28;20002;-39
2023/09/01 08:24:08;;;;;;;;;;;16.70;99.90;;;;;;5016341;28;19979;-39
2023/09/01 08:26:35;;;;;;;;;;;16.70;99.90;;;;;;5014983;28;19949;-39
2023/09/01 08:29:03;;;;;;;;;;;16.70;99.90;;;;;;5024425;28;19941;-39
2023/09/01 08:31:32;;;;;;;;;;;16.80;99.90;;;;;;5032933;28;19937;-40
2023/09/01 08:34:00;;;;;;;;;;;16.80;99.90;;;;;;5023341;28;19950;-40
2023/09/01 08:36:28;;;;;;;;;;;16.90;99.90;;;;;;5030757;28;19939;-39
2023/09/01 08:38:55;;;;;;;;;;;16.90;99.90;;;;;;5050988;28;19945;-40
2023/09/01 08:41:22;;;;;;;;;;;17.10;99.90;;;;;;5025017;28;19991;-40
2023/09/01 08:43:49;;;;;;;;;;;17.10;99.90;;;;;;5018964;28;19971;-40
2023/09/01 08:46:16;;;;;;;;;;;17.20;99.90;;;;;;5031195;28;19961;-40
2023/09/01 08:48:43;;;;;;;;;;;17.30;99.90;;;;;;5015365;28;19940;-39
2023/09/01 08:51:14;;;;;;;;;;;17.40;99.90;;;;;;5015560;28;19960;-39
2023/09/01 08:53:41;;;;;;;;;;;17.40;99.90;;;;;;5015369;28;20439;-39
2023/09/01 08:56:08;;;;;;;;;;;17.50;99.90;;;;;;5027868;28;19941;-40
2023/09/01 08:58:35;;;;;;;;;;;17.60;99.90;;;;;;5032623;28;19939;-40
2023/09/01 09:01:03;;;;;;;;;;;17.60;99.90;;;;;;5057879;28;21196;-39
2023/09/01 09:03:30;;;;;;;;;;;17.70;99.90;;;;;;5025600;28;20082;-39
2023/09/01 09:05:56;;;;;;;;;;;17.80;99.90;;;;;;5029953;28;19992;-40
2023/09/01 09:08:25;;;;;;;;;;;17.90;99.90;;;;;;5034690;28;19950;-40
2023/09/01 09:10:51;;;;;;;;;;;18.00;99.90;;;;;;5034985;28;20380;-40
2023/09/01 09:13:22;;;;;;;;;;;18.00;99.90;;;;;;5032049;28;20018;-40
2023/09/01 09:16:03;;;;;;;;;;;18.20;99.90;;;;;;5026567;28;19929;-39
2023/09/01 09:18:30;;;;;;;;;;;18.30;99.90;;;;;;5022714;28;20399;-39
2023/09/01 09:20:56;;;;;;;;;;;18.50;99.90;;;;;;5023634;28;19942;-40
2023/09/01 09:23:25;;;;;;;;;;;18.70;99.90;;;;;;5026439;28;19962;-39
2023/09/01 09:25:52;;;;;;;;;;;18.80;99.90;;;;;;5029825;28;20282;-40
2023/09/01 09:28:18;;;;;;;;;;;18.90;99.90;;;;;;5032570;28;19933;-39
2023/09/01 09:30:49;;;;;;;;;;;19.00;99.90;;;;;;5025888;28;19925;-40
2023/09/01 09:33:15;;;;;;;;;;;19.10;99.90;;;;;;5031057;28;19932;-39
2023/09/01 09:35:48;;;;;;;;;;;19.20;99.90;;;;;;5030726;28;19940;-39
2023/09/01 09:38:15;;;;;;;;;;;19.30;99.90;;;;;;5030067;28;19967;-39
2023/09/01 09:40:57;;;;;;;;;;;19.30;99.90;;;;;;5025355;28;19935;-40
2023/09/01 09:43:24;;;;;;;;;;;19.30;99.90;;;;;;5028799;28;19952;-39
2023/09/01 09:45:52;;;;;;;;;;;19.30;99.90;;;;;;5028651;28;20346;-40
2023/09/01 09:48:18;;;;;;;;;;;19.40;99.90;;;;;;5029250;28;19954;-39
2023/09/01 09:50:45;;;;;;;;;;;19.40;99.90;;;;;;5024836;28;20373;-39
2023/09/01 09:53:12;;;;;;;;;;;19.50;99.90;;;;;;5026879;28;19943;-39
2023/09/01 09:55:40;;;;;;;;;;;19.50;99.90;;;;;;5030667;28;20353;-40
2023/09/01 09:58:08;;;;;;;;;;;19.50;99.90;;;;;;5028002;28;20059;-40
2023/09/01 10:00:39;;;;;;;;;;;19.60;99.90;;;;;;5044105;28;19998;-39
2023/09/01 10:03:06;;;;;;;;;;;19.60;99.90;;;;;;5027439;28;19980;-40
2023/09/01 10:05:33;;;;;;;;;;;19.60;99.90;;;;;;5028481;28;19942;-40
2023/09/01 10:08:02;;;;;;;;;;;19.70;99.90;;;;;;5028051;28;20040;-40
2023/09/01 10:10:29;;;;;;;;;;;19.80;99.90;;;;;;5030042;28;19960;-40
2023/09/01 10:12:55;;;;;;;;;;;19.80;99.90;;;;;;5027959;28;19960;-39
2023/09/01 10:15:24;;;;;;;;;;;19.80;99.90;;;;;;5029685;28;19997;-40
2023/09/01 10:17:51;;;;;;;;;;;19.80;99.90;;;;;;5059284;28;20016;-40
2023/09/01 10:20:17;;;;;;;;;;;19.80;99.90;;;;;;5029109;28;19944;-40
2023/09/01 10:22:44;;;;;;;;;;;19.80;99.90;;;;;;5018652;28;20331;-40
2023/09/01 10:25:11;;;;;;;;;;;19.80;99.90;;;;;;5028296;28;19955;-40
2023/09/01 10:27:38;;;;;;;;;;;19.90;99.90;;;;;;5026982;28;20411;-40
2023/09/01 10:30:20;;;;;;;;;;;19.90;99.90;;;;;;5029235;28;19946;-40
2023/09/01 10:32:48;;;;;;;;;;;19.80;99.90;;;;;;5055711;28;19935;-40
2023/09/01 10:35:15;;;;;;;;;;;19.70;99.90;;;;;;5056651;28;20003;-39
2023/09/01 10:37:42;;;;;;;;;;;19.70;99.90;;;;;;5029514;28;20011;-39
2023/09/01 10:40:25;;;;;;;;;;;19.80;99.90;;;;;;5030449;28;20194;-39
2023/09/01 10:42:52;;;;;;;;;;;19.70;99.90;;;;;;5026138;28;20463;-40
2023/09/01 10:45:19;;;;;;;;;;;19.80;99.90;;;;;;5032272;28;19929;-40
2023/09/01 10:47:46;;;;;;;;;;;19.80;99.90;;;;;;5019481;28;20291;-39
2023/09/01 10:50:16;;;;;;;;;;;19.70;99.90;;;;;;5024508;28;19925;-40
2023/09/01 10:52:44;;;;;;;;;;;19.70;99.90;;;;;;5017115;28;19996;-39
2023/09/01 10:55:11;;;;;;;;;;;19.70;99.90;;;;;;5028052;28;20282;-40
2023/09/01 10:57:42;;;;;;;;;;;19.70;99.90;;;;;;5026016;28;19957;-39
2023/09/01 11:00:27;;;;;;;;;;;19.80;99.90;;;;;;5021008;28;20382;-40
2023/09/01 11:02:54;;;;;;;;;;;19.80;99.90;;;;;;5026947;28;19936;-40
2023/09/01 11:05:38;;;;;;;;;;;19.90;99.90;;;;;;5025004;28;19957;-40
2023/09/01 11:08:12;;;;;;;;;;;20.00;99.90;;;;;;5028760;28;19991;-40
2023/09/01 11:10:39;;;;;;;;;;;20.00;99.90;;;;;;5028275;28;19934;-40
2023/09/01 11:13:13;;;;;;;;;;;20.10;99.90;;;;;;5028172;28;19961;-40
2023/09/01 11:15:43;;;;;;;;;;;20.20;99.90;;;;;;5065020;28;19936;-40
2023/09/01 11:18:15;;;;;;;;;;;20.20;99.90;;;;;;5053372;28;20422;-40
2023/09/01 11:20:43;;;;;;;;;;;20.20;99.90;;;;;;5026606;28;20379;-40
2023/09/01 11:23:10;;;;;;;;;;;20.20;99.90;;;;;;5019703;28;19970;-40
2023/09/01 11:25:37;;;;;;;;;;;20.20;99.90;;;;;;5027794;28;20443;-40
2023/09/01 11:28:04;;;;;;;;;;;20.20;99.90;;;;;;5021426;28;19929;-40
2023/09/01 11:30:30;;;;;;;;;;;20.30;99.90;;;;;;5018040;28;20380;-40
2023/09/01 11:32:57;;;;;;;;;;;20.40;99.90;;;;;;5027639;28;19937;-40
2023/09/01 11:35:24;;;;;;;;;;;20.50;99.90;;;;;;5048092;28;20369;-40
2023/09/01 11:37:53;;;;;;;;;;;20.60;99.90;;;;;;5013822;28;20305;-40
2023/09/01 11:40:20;;;;;;;;;;;20.70;99.90;;;;;;5026563;28;19946;-40
2023/09/01 11:42:47;;;;;;;;;;;20.70;99.90;;;;;;5024680;28;20385;-40
2023/09/01 11:45:13;;;;;;;;;;;20.70;99.90;;;;;;5025032;28;20469;-40
2023/09/01 11:47:40;;;;;;;;;;;20.70;99.90;;;;;;5025772;28;20341;-40
2023/09/01 11:50:07;;;;;;;;;;;20.70;99.90;;;;;;5024999;28;19969;-40
2023/09/01 11:52:48;;;;;;;;;;;20.80;99.90;;;;;;5020124;28;20421;-40
2023/09/01 11:55:28;;;;;;;;;;;20.80;99.90;;;;;;5023703;28;19929;-40
2023/09/01 11:57:55;;;;;;;;;;;20.80;99.90;;;;;;5028846;28;20014;-40
2023/09/01 12:00:28;;;;;;;;;;;20.80;99.90;;;;;;5024566;28;19973;-40
2023/09/01 12:02:55;;;;;;;;;;;20.70;99.90;;;;;;5030701;28;19996;-40
2023/09/01 12:05:28;;;;;;;;;;;20.80;99.90;;;;;;5025088;28;20323;-40
2023/09/01 12:07:54;;;;;;;;;;;20.80;99.90;;;;;;5029460;28;19963;-40
2023/09/01 12:10:22;;;;;;;;;;;20.80;99.90;;;;;;5027953;28;20458;-40
2023/09/01 12:12:50;;;;;;;;;;;20.80;99.90;;;;;;5030198;28;19978;-40
2023/09/01 12:15:17;;;;;;;;;;;20.90;99.90;;;;;;5028222;28;19964;-40
2023/09/01 12:17:43;;;;;;;;;;;20.80;99.90;;;;;;5031195;28;19929;-41
2023/09/01 12:20:10;;;;;;;;;;;20.80;99.90;;;;;;5025268;28;19986;-40
2023/09/01 12:22:37;;;;;;;;;;;20.80;99.90;;;;;;5025866;28;19936;-40
2023/09/01 12:25:04;;;;;;;;;;;20.80;99.90;;;;;;5056374;28;19979;-40
2023/09/01 12:27:31;;;;;;;;;;;20.90;99.90;;;;;;5066471;28;20005;-41
2023/09/01 12:29:59;;;;;;;;;;;20.90;99.90;;;;;;5035757;28;20312;-41
2023/09/01 12:32:28;;;;;;;;;;;20.90;99.90;;;;;;5036134;28;19959;-41
2023/09/01 12:34:55;;;;;;;;;;;20.80;99.90;;;;;;5034937;28;19943;-40
2023/09/01 12:37:22;;;;;;;;;;;20.80;99.90;;;;;;5035559;28;19943;-40
2023/09/01 12:39:48;;;;;;;;;;;20.90;99.90;;;;;;5028121;28;20007;-40
2023/09/01 12:42:15;;;;;;;;;;;21.00;99.90;;;;;;5034453;28;20153;-41
2023/09/01 12:44:42;;;;;;;;;;;21.10;99.90;;;;;;5035242;28;20045;-41
2023/09/01 12:47:10;;;;;;;;;;;21.20;99.90;;;;;;5030857;28;20366;-40
2023/09/01 12:49:37;;;;;;;;;;;21.20;99.90;;;;;;5032712;28;19983;-40
2023/09/01 12:52:04;;;;;;;;;;;21.30;99.90;;;;;;5034013;28;20022;-40
2023/09/01 12:54:30;;;;;;;;;;;21.30;99.90;;;;;;5033937;28;19936;-40
2023/09/01 12:56:57;;;;;;;;;;;21.50;99.90;;;;;;5035148;28;19942;-40
2023/09/01 12:59:24;;;;;;;;;;;21.60;99.90;;;;;;5031544;28;20393;-40
2023/09/01 13:01:50;;;;;;;;;;;21.60;99.90;;;;;;5015417;28;19944;-41
2023/09/01 13:04:18;;;;;;;;;;;21.70;99.90;;;;;;5022829;28;19939;-40
2023/09/01 13:06:45;;;;;;;;;;;21.90;99.90;;;;;;5033979;28;20336;-41
2023/09/01 13:09:12;;;;;;;;;;;22.00;99.90;;;;;;5033891;28;19960;-40
2023/09/01 13:11:39;;;;;;;;;;;22.10;99.90;;;;;;5029317;28;19925;-41
2023/09/01 13:14:05;;;;;;;;;;;22.20;99.90;;;;;;5030614;28;19966;-40
2023/09/01 13:16:32;;;;;;;;;;;22.30;99.90;;;;;;5030002;28;19925;-40
2023/09/01 13:18:59;;;;;;;;;;;22.40;99.90;;;;;;5062361;28;19925;-40
2023/09/01 13:21:27;;;;;;;;;;;22.40;99.90;;;;;;5034765;28;20550;-41
2023/09/01 13:23:53;;;;;;;;;;;22.50;99.90;;;;;;5034666;28;19943;-41
2023/09/01 13:26:20;;;;;;;;;;;22.50;99.90;;;;;;5034693;28;19956;-40
2023/09/01 13:28:47;;;;;;;;;;;22.60;99.90;;;;;;5033305;28;19949;-40
2023/09/01 13:31:15;;;;;;;;;;;22.60;99.90;;;;;;5031463;28;19952;-40
2023/09/01 13:33:42;;;;;;;;;;;22.70;99.90;;;;;;5033527;28;19935;-40
2023/09/01 13:36:09;;;;;;;;;;;22.80;99.90;;;;;;5051609;28;20009;-40
2023/09/01 13:38:37;;;;;;;;;;;22.80;99.90;;;;;;5023249;28;19976;-41
2023/09/01 13:41:07;;;;;;;;;;;22.70;99.90;;;;;;5028356;28;19948;-40
2023/09/01 13:43:34;;;;;;;;;;;22.50;99.90;;;;;;5034832;28;19986;-41
2023/09/01 13:46:16;;;;;;;;;;;22.40;99.90;;;;;;5033316;28;19967;-41
2023/09/01 13:48:42;;;;;;;;;;;22.40;99.90;;;;;;5028235;28;20025;-40
2023/09/01 13:51:09;;;;;;;;;;;22.40;99.90;;;;;;5027997;28;19959;-40
2023/09/01 13:53:37;;;;;;;;;;;22.50;99.90;;;;;;5023294;28;19933;-41
2023/09/01 13:56:04;;;;;;;;;;;22.60;99.90;;;;;;5027936;28;19940;-40
2023/09/01 13:58:31;;;;;;;;;;;22.80;99.90;;;;;;5023098;28;19934;-40
2023/09/01 14:00:57;;;;;;;;;;;22.90;99.90;;;;;;5033203;28;19962;-41
2023/09/01 14:03:24;;;;;;;;;;;22.90;99.90;;;;;;5031066;28;20296;-40
2023/09/01 14:05:51;;;;;;;;;;;22.90;99.90;;;;;;5015113;28;19929;-41
2023/09/01 14:08:17;;;;;;;;;;;22.90;99.90;;;;;;5028529;28;20174;-41
2023/09/01 14:10:45;;;;;;;;;;;22.80;99.90;;;;;;5026805;28;19936;-40
2023/09/01 14:13:12;;;;;;;;;;;22.70;99.60;;;;;;5028705;28;19956;-41
2023/09/01 14:15:39;;;;;;;;;;;22.60;99.90;;;;;;5022144;28;19953;-40
2023/09/01 14:18:05;;;;;;;;;;;22.50;99.70;;;;;;5028975;28;20380;-40